createdAt,value
2024-03-14T00:01:42.039Z,9.42
2024-03-14T00:04:43.545Z,9.38
2024-03-14T00:07:45.087Z,9.42
2024-03-14T00:10:46.795Z,9.42
2024-03-14T00:13:49.605Z,9.41
2024-03-14T00:16:51.274Z,9.45
2024-03-14T00:19:52.820Z,9.43
2024-03-14T00:22:54.340Z,9.42
2024-03-14T00:25:55.891Z,9.46
2024-03-14T00:28:57.357Z,9.47
2024-03-14T00:31:59.884Z,9.47
2024-03-14T00:35:01.392Z,9.48
2024-03-14T00:38:02.996Z,9.49
2024-03-14T00:41:04.494Z,9.51
2024-03-14T00:44:06.029Z,9.48
2024-03-14T00:47:07.590Z,9.45
2024-03-14T00:50:09.135Z,9.46
2024-03-14T00:53:10.586Z,9.49
2024-03-14T00:56:12.276Z,9.48
2024-03-14T00:59:13.727Z,9.43
2024-03-14T01:02:15.260Z,9.43
2024-03-14T01:05:16.800Z,9.44
2024-03-14T01:08:18.359Z,9.44
2024-03-14T01:11:19.934Z,9.41
2024-03-14T01:14:21.452Z,9.43
2024-03-14T01:17:22.942Z,9.42
2024-03-14T01:20:24.418Z,9.42
2024-03-14T01:23:25.934Z,9.44
2024-03-14T01:26:27.444Z,9.41
2024-03-14T01:29:28.990Z,9.44
2024-03-14T01:32:30.498Z,9.39
2024-03-14T01:35:31.997Z,9.43
2024-03-14T01:38:33.455Z,9.43
2024-03-14T01:41:34.966Z,9.45
2024-03-14T01:44:38.241Z,9.45
2024-03-14T01:47:39.888Z,9.44
2024-03-14T01:50:41.419Z,9.46
2024-03-14T01:53:42.970Z,9.40
2024-03-14T01:56:44.546Z,9.43
2024-03-14T01:59:46.196Z,9.37
2024-03-14T02:02:47.723Z,9.41
2024-03-14T02:05:49.330Z,9.45
2024-03-14T02:08:50.922Z,9.40
2024-03-14T02:11:52.591Z,9.37
2024-03-14T02:14:54.236Z,9.42
2024-03-14T02:17:55.872Z,9.38
2024-03-14T02:20:57.573Z,9.39
2024-03-14T02:23:59.192Z,9.35
2024-03-14T02:27:04.209Z,9.28
2024-03-14T02:30:05.998Z,9.33
2024-03-14T02:33:07.621Z,9.31
2024-03-14T02:36:09.244Z,9.28
2024-03-14T02:39:10.818Z,9.25
2024-03-14T02:42:12.536Z,9.27
2024-03-14T02:45:14.362Z,9.31
2024-03-14T02:48:15.908Z,9.29
2024-03-14T02:51:17.565Z,9.21
2024-03-14T02:54:20.402Z,9.22
2024-03-14T02:57:21.972Z,9.16
2024-03-14T03:00:23.723Z,9.08
2024-03-14T03:03:25.417Z,8.95
2024-03-14T03:06:26.983Z,8.82
2024-03-14T03:09:28.506Z,8.99
2024-03-14T03:12:30.129Z,9.10
2024-03-14T03:15:31.799Z,9.13
2024-03-14T03:18:33.479Z,9.14
2024-03-14T03:21:35.105Z,9.18
2024-03-14T03:24:36.714Z,9.18
2024-03-14T03:27:38.245Z,9.20
2024-03-14T03:30:39.810Z,9.22
2024-03-14T03:33:41.402Z,9.20
2024-03-14T03:36:42.954Z,9.17
2024-03-14T03:39:44.450Z,9.19
2024-03-14T03:42:45.963Z,9.12
2024-03-14T03:45:47.474Z,9.15
2024-03-14T03:48:49.370Z,9.19
2024-03-14T03:51:50.901Z,9.19
2024-03-14T03:54:52.484Z,9.07
2024-03-14T03:57:53.960Z,9.03
2024-03-14T04:00:55.414Z,8.95
2024-03-14T04:03:56.976Z,8.91
2024-03-14T04:06:58.594Z,8.91
2024-03-14T04:10:01.130Z,8.90
2024-03-14T04:13:02.693Z,8.89
2024-03-14T04:16:05.286Z,8.90
2024-03-14T04:19:06.847Z,8.90
2024-03-14T04:22:08.473Z,8.91
2024-03-14T04:25:09.979Z,8.92
2024-03-14T04:28:11.440Z,8.90
2024-03-14T04:31:12.965Z,8.97
2024-03-14T04:34:14.522Z,9.01
2024-03-14T04:37:16.020Z,9.03
2024-03-14T04:40:17.577Z,9.01
2024-03-14T04:43:22.758Z,9.05
2024-03-14T04:46:24.350Z,9.09
2024-03-14T04:49:28.040Z,9.11
2024-03-14T04:52:29.984Z,9.10
2024-03-14T04:55:31.438Z,9.04
2024-03-14T04:58:32.955Z,9.09
2024-03-14T05:01:34.561Z,9.14
2024-03-14T05:04:36.103Z,9.11
2024-03-14T05:07:37.654Z,9.14
2024-03-14T05:10:39.219Z,9.13
2024-03-14T05:13:40.747Z,9.16
2024-03-14T05:16:42.250Z,9.20
2024-03-14T05:19:43.863Z,9.21
2024-03-14T05:22:45.473Z,9.20
2024-03-14T05:25:47.094Z,9.18
2024-03-14T05:28:48.648Z,9.16
2024-03-14T05:31:50.194Z,9.16
2024-03-14T05:34:51.733Z,9.22
2024-03-14T05:37:53.387Z,9.18
2024-03-14T05:40:57.537Z,9.23
2024-03-14T05:43:59.102Z,9.23
2024-03-14T05:47:00.664Z,9.24
2024-03-14T05:50:04.160Z,9.25
2024-03-14T05:53:07.085Z,9.25
2024-03-14T05:56:09.169Z,9.33
2024-03-14T05:59:10.858Z,9.31
2024-03-14T06:02:12.416Z,9.34
2024-03-14T06:05:13.999Z,9.31
2024-03-14T06:08:15.600Z,9.33
2024-03-14T06:11:17.271Z,9.34
2024-03-14T06:14:18.790Z,9.35
2024-03-14T06:17:21.411Z,9.38
2024-03-14T06:20:22.891Z,9.38
2024-03-14T06:23:24.387Z,9.41
2024-03-14T06:26:26.875Z,9.49
2024-03-14T06:29:28.462Z,9.49
2024-03-14T06:32:30.213Z,9.54
2024-03-14T06:35:32.767Z,9.64
2024-03-14T06:38:34.288Z,9.69
2024-03-14T06:41:35.810Z,9.72
2024-03-14T06:44:37.363Z,9.76
2024-03-14T06:47:38.923Z,9.81
2024-03-14T06:50:40.472Z,9.91
2024-03-14T06:53:41.980Z,9.98
2024-03-14T06:56:43.482Z,10.01
2024-03-14T06:59:46.242Z,10.04
2024-03-14T07:02:48.465Z,10.18
2024-03-14T07:05:50.020Z,10.26
2024-03-14T07:08:51.534Z,10.30
2024-03-14T07:11:53.101Z,10.31
2024-03-14T07:14:54.604Z,10.38
2024-03-14T07:18:01.026Z,10.41
2024-03-14T07:21:09.506Z,10.36
2024-03-14T07:24:12.196Z,10.45
2024-03-14T07:27:13.777Z,10.47
2024-03-14T07:30:15.337Z,10.53
2024-03-14T07:33:24.694Z,10.78
2024-03-14T07:36:26.263Z,10.80
2024-03-14T07:39:27.992Z,10.84
2024-03-14T07:42:29.594Z,10.92
2024-03-14T07:45:31.302Z,10.97
2024-03-14T07:48:36.513Z,10.83
2024-03-14T07:51:41.415Z,10.86
2024-03-14T07:54:43.110Z,10.87
2024-03-14T07:57:44.575Z,11.10
2024-03-14T08:00:46.302Z,11.01
2024-03-14T08:03:47.873Z,11.06
2024-03-14T08:06:50.606Z,11.09
2024-03-14T08:09:52.089Z,11.07
2024-03-14T08:12:53.610Z,11.07
2024-03-14T08:15:56.878Z,11.03
2024-03-14T08:18:58.613Z,11.15
2024-03-14T08:22:04.418Z,11.09
2024-03-14T08:25:06.168Z,11.30
2024-03-14T08:28:07.683Z,11.43
2024-03-14T08:31:10.707Z,11.44
2024-03-14T08:34:13.144Z,11.76
2024-03-14T08:37:18.445Z,11.99
2024-03-14T08:40:19.960Z,12.06
2024-03-14T08:43:21.543Z,12.10
2024-03-14T08:46:23.147Z,12.05
2024-03-14T08:49:24.684Z,12.64
2024-03-14T08:52:30.284Z,12.71
2024-03-14T08:55:31.843Z,12.32
2024-03-14T08:58:33.286Z,12.57
2024-03-14T09:01:34.939Z,12.49
2024-03-14T09:04:36.466Z,13.14
2024-03-14T09:07:38.026Z,13.21
2024-03-14T09:10:39.465Z,13.24
2024-03-14T09:13:40.998Z,13.30
2024-03-14T09:16:42.479Z,13.64
2024-03-14T09:19:45.119Z,13.37
2024-03-14T09:22:46.621Z,13.70
2024-03-14T09:25:48.332Z,13.74
2024-03-14T09:28:50.825Z,13.35
2024-03-14T09:31:52.399Z,13.73
2024-03-14T09:34:53.951Z,13.60
2024-03-14T09:37:55.434Z,14.01
2024-03-14T09:41:02.151Z,13.97
2024-03-14T09:44:10.894Z,14.22
2024-03-14T09:47:13.348Z,14.29
2024-03-14T09:50:14.957Z,14.51
2024-03-14T09:53:16.471Z,14.24
2024-03-14T09:56:17.995Z,14.29
2024-03-14T09:59:19.428Z,14.39
2024-03-14T10:02:21.011Z,14.22
2024-03-14T10:05:22.515Z,14.13
2024-03-14T10:08:24.084Z,14.38
2024-03-14T10:11:25.672Z,14.57
2024-03-14T10:14:28.400Z,14.11
2024-03-14T10:17:29.934Z,14.49
2024-03-14T10:20:32.348Z,14.38
2024-03-14T10:23:33.945Z,14.22
2024-03-14T10:26:35.457Z,14.15
2024-03-14T10:29:36.962Z,14.16
2024-03-14T10:32:38.564Z,14.41
2024-03-14T10:35:40.073Z,14.28
2024-03-14T10:38:41.576Z,14.67
2024-03-14T10:41:43.267Z,14.93
2024-03-14T10:44:44.777Z,14.81
2024-03-14T10:47:46.415Z,14.97
2024-03-14T10:50:47.973Z,15.02
2024-03-14T10:53:49.471Z,15.42
2024-03-14T10:56:51.023Z,15.35
2024-03-14T10:59:52.687Z,15.02
2024-03-14T11:02:54.234Z,14.88
2024-03-14T11:05:55.802Z,14.46
2024-03-14T11:08:57.490Z,14.50
2024-03-14T11:11:59.098Z,14.90
2024-03-14T11:15:00.999Z,14.84
2024-03-14T11:18:02.676Z,15.08
2024-03-14T11:21:04.296Z,15.28
2024-03-14T11:24:06.001Z,15.45
2024-03-14T11:27:07.547Z,15.46
2024-03-14T11:30:10.045Z,15.51
2024-03-14T11:33:11.696Z,15.26
2024-03-14T11:36:13.336Z,15.22
2024-03-14T11:39:14.986Z,15.49
2024-03-14T11:42:16.542Z,15.52
2024-03-14T11:45:18.165Z,15.39
2024-03-14T11:48:19.739Z,15.68
2024-03-14T11:51:21.257Z,15.50
2024-03-14T11:54:22.902Z,15.51
2024-03-14T11:57:24.714Z,15.68
2024-03-14T12:00:26.284Z,15.56
2024-03-14T12:03:27.842Z,16.00
2024-03-14T12:06:29.613Z,15.98
2024-03-14T12:09:31.461Z,15.56
2024-03-14T12:12:33.377Z,15.77
2024-03-14T12:15:35.048Z,16.33
2024-03-14T12:18:36.614Z,16.21
2024-03-14T12:21:40.018Z,16.08
2024-03-14T12:24:42.351Z,15.69
2024-03-14T12:27:43.876Z,15.84
2024-03-14T12:30:51.980Z,15.26
2024-03-14T12:33:53.525Z,15.88
2024-03-14T12:36:55.053Z,16.13
2024-03-14T12:39:56.543Z,16.21
2024-03-14T12:42:58.042Z,16.21
2024-03-14T12:45:59.612Z,16.07
2024-03-14T12:49:02.132Z,16.69
2024-03-14T12:52:03.734Z,15.98
2024-03-14T12:55:13.836Z,15.52
2024-03-14T12:58:16.358Z,15.91
2024-03-14T13:01:17.924Z,15.90
2024-03-14T13:04:20.528Z,15.54
2024-03-14T13:07:22.130Z,15.93
2024-03-14T13:10:23.645Z,15.62
2024-03-14T13:13:25.095Z,15.32
2024-03-14T13:16:26.618Z,15.37
2024-03-14T13:19:28.178Z,15.57
2024-03-14T13:22:29.768Z,15.80
2024-03-14T13:25:31.349Z,15.43
2024-03-14T13:28:32.882Z,16.07
2024-03-14T13:31:34.326Z,15.35
2024-03-14T13:34:35.888Z,15.40
2024-03-14T13:37:37.416Z,15.44
2024-03-14T13:40:38.981Z,15.74
2024-03-14T13:43:40.455Z,15.50
2024-03-14T13:46:42.074Z,15.40
2024-03-14T13:49:43.650Z,15.40
2024-03-14T13:52:45.231Z,15.81
2024-03-14T13:55:46.726Z,15.79
2024-03-14T13:58:48.254Z,15.84
2024-03-14T14:01:50.189Z,16.11
2024-03-14T14:04:57.915Z,15.81
2024-03-14T14:07:59.383Z,15.55
2024-03-14T14:11:00.938Z,15.45
2024-03-14T14:14:02.562Z,15.81
2024-03-14T14:17:04.329Z,15.89
2024-03-14T14:20:06.012Z,15.79
2024-03-14T14:23:07.451Z,15.58
2024-03-14T14:26:09.032Z,15.33
2024-03-14T14:29:10.521Z,15.24
2024-03-14T14:32:12.095Z,15.13
2024-03-14T14:35:13.621Z,15.05
2024-03-14T14:38:15.168Z,14.95
2024-03-14T14:41:18.587Z,15.26
2024-03-14T14:44:20.023Z,15.46
2024-03-14T14:47:21.494Z,15.57
2024-03-14T14:50:23.061Z,15.60
2024-03-14T14:53:24.684Z,15.67
2024-03-14T14:56:26.233Z,15.64
2024-03-14T14:59:27.774Z,15.89
2024-03-14T15:02:29.309Z,16.17
2024-03-14T15:05:30.902Z,16.08
2024-03-14T15:08:32.465Z,16.05
2024-03-14T15:11:35.116Z,16.09
2024-03-14T15:14:37.228Z,16.04
2024-03-14T15:17:38.931Z,15.93
2024-03-14T15:20:40.436Z,15.84
2024-03-14T15:23:42.062Z,16.00
2024-03-14T15:26:43.583Z,15.88
2024-03-14T15:29:45.101Z,15.72
2024-03-14T15:32:47.302Z,15.64
2024-03-14T15:35:49.205Z,15.58
2024-03-14T15:38:50.757Z,15.61
2024-03-14T15:41:53.330Z,15.67
2024-03-14T15:44:54.835Z,15.75
2024-03-14T15:47:56.489Z,15.34
2024-03-14T15:50:59.074Z,15.35
2024-03-14T15:54:00.608Z,15.28
2024-03-14T15:57:02.170Z,15.13
2024-03-14T16:00:04.042Z,15.06
2024-03-14T16:03:13.507Z,14.98
2024-03-14T16:06:15.307Z,15.05
2024-03-14T16:09:17.067Z,15.17
2024-03-14T16:12:18.779Z,15.26
2024-03-14T16:15:20.345Z,15.12
2024-03-14T16:18:21.993Z,15.17
2024-03-14T16:21:23.632Z,15.07
2024-03-14T16:24:25.278Z,14.98
2024-03-14T16:27:26.909Z,14.79
2024-03-14T16:30:28.407Z,14.56
2024-03-14T16:33:29.993Z,14.54
2024-03-14T16:36:31.478Z,14.42
2024-03-14T16:39:33.061Z,14.40
2024-03-14T16:42:34.592Z,14.22
2024-03-14T16:45:36.340Z,14.06
2024-03-14T16:48:37.992Z,14.05
2024-03-14T16:51:39.544Z,13.82
2024-03-14T16:54:41.188Z,13.83
2024-03-14T16:57:42.753Z,13.62
2024-03-14T17:00:44.355Z,13.52
2024-03-14T17:03:46.090Z,13.36
2024-03-14T17:06:47.818Z,13.25
2024-03-14T17:09:49.447Z,13.02
2024-03-14T17:12:50.999Z,13.11
2024-03-14T17:15:55.523Z,13.05
2024-03-14T17:18:57.200Z,13.09
2024-03-14T17:21:58.754Z,12.96
2024-03-14T17:25:00.308Z,13.08
2024-03-14T17:28:05.219Z,13.05
2024-03-14T17:31:12.942Z,13.03
2024-03-14T17:34:14.597Z,13.01
2024-03-14T17:37:16.178Z,12.94
2024-03-14T17:40:17.687Z,12.81
2024-03-14T17:43:19.234Z,12.77
2024-03-14T17:46:27.040Z,12.63
2024-03-14T17:49:28.588Z,12.76
2024-03-14T17:52:30.132Z,12.71
2024-03-14T17:55:31.655Z,12.70
2024-03-14T17:58:40.038Z,12.87
2024-03-14T18:01:41.504Z,12.68
2024-03-14T18:04:45.647Z,12.51
2024-03-14T18:07:47.788Z,12.56
2024-03-14T18:10:49.847Z,12.63
2024-03-14T18:13:55.603Z,12.53
2024-03-14T18:17:00.447Z,12.48
2024-03-14T18:20:02.016Z,12.42
2024-03-14T18:23:03.519Z,12.45
2024-03-14T18:26:05.071Z,12.59
2024-03-14T18:29:06.544Z,12.41
2024-03-14T18:32:08.065Z,12.47
2024-03-14T18:35:09.654Z,12.39
2024-03-14T18:38:11.248Z,12.31
2024-03-14T18:41:14.888Z,12.32
2024-03-14T18:44:19.998Z,12.30
2024-03-14T18:47:24.838Z,12.31
2024-03-14T18:50:26.302Z,12.27
2024-03-14T18:53:31.935Z,12.19
2024-03-14T18:56:36.359Z,12.20
2024-03-14T18:59:37.945Z,12.10
2024-03-14T19:02:43.971Z,12.05
2024-03-14T19:05:45.935Z,12.20
2024-03-14T19:08:47.395Z,12.11
2024-03-14T19:11:50.153Z,12.35
2024-03-14T19:14:54.482Z,12.24
2024-03-14T19:18:03.385Z,12.30
2024-03-14T19:21:05.085Z,12.24
2024-03-14T19:24:07.040Z,12.21
2024-03-14T19:27:09.031Z,12.20
2024-03-14T19:30:10.942Z,12.28
2024-03-14T19:33:12.701Z,12.34
2024-03-14T19:36:14.446Z,12.24
2024-03-14T19:39:16.104Z,12.29
2024-03-14T19:42:17.736Z,12.30
2024-03-14T19:45:19.395Z,12.22
2024-03-14T19:48:24.935Z,12.13
2024-03-14T19:51:26.503Z,12.08
2024-03-14T19:54:28.074Z,12.15
2024-03-14T19:57:29.713Z,12.12
2024-03-14T20:00:31.315Z,12.13
2024-03-14T20:03:38.580Z,12.13
2024-03-14T20:06:40.342Z,12.06
2024-03-14T20:09:41.972Z,12.06
2024-03-14T20:12:43.441Z,12.17
2024-03-14T20:15:45.048Z,12.01
2024-03-14T20:18:46.664Z,12.07
2024-03-14T20:21:48.438Z,12.03
2024-03-14T20:24:50.062Z,12.02
2024-03-14T20:27:51.882Z,11.93
2024-03-14T20:30:53.575Z,11.91
2024-03-14T20:33:55.107Z,11.85
2024-03-14T20:36:56.888Z,11.85
2024-03-14T20:40:01.856Z,11.85
2024-03-14T20:43:03.781Z,11.73
2024-03-14T20:46:05.296Z,11.81
2024-03-14T20:49:07.133Z,11.74
2024-03-14T20:52:09.642Z,11.70
2024-03-14T20:55:22.129Z,11.61
2024-03-14T20:58:24.256Z,11.75
2024-03-14T21:01:25.797Z,11.77
2024-03-14T21:04:27.357Z,11.80
2024-03-14T21:07:28.926Z,11.83
2024-03-14T21:10:30.452Z,11.75
2024-03-14T21:13:32.163Z,11.90
2024-03-14T21:16:35.080Z,11.78
2024-03-14T21:19:36.676Z,11.74
2024-03-14T21:22:38.214Z,11.77
2024-03-14T21:25:39.928Z,11.71
2024-03-14T21:28:41.632Z,11.63
2024-03-14T21:31:43.233Z,11.73
2024-03-14T21:34:45.452Z,11.72
2024-03-14T21:37:46.910Z,11.85
2024-03-14T21:40:48.362Z,11.79
2024-03-14T21:43:50.006Z,11.85
2024-03-14T21:46:51.583Z,11.85
2024-03-14T21:49:53.068Z,11.74
2024-03-14T21:52:54.753Z,11.83
2024-03-14T21:55:56.245Z,11.73
2024-03-14T21:58:57.814Z,11.71
2024-03-14T22:01:59.394Z,11.76
2024-03-14T22:05:01.005Z,11.71
2024-03-14T22:08:02.496Z,11.80
2024-03-14T22:11:03.956Z,11.74
2024-03-14T22:14:05.706Z,11.79
2024-03-14T22:17:07.330Z,11.70
2024-03-14T22:20:09.468Z,11.67
2024-03-14T22:23:11.237Z,11.73
2024-03-14T22:26:12.771Z,11.76
2024-03-14T22:29:14.347Z,11.72
2024-03-14T22:32:15.869Z,11.60
2024-03-14T22:35:17.345Z,11.68
2024-03-14T22:38:18.815Z,11.66
2024-03-14T22:41:20.417Z,11.69
2024-03-14T22:44:22.042Z,11.66
2024-03-14T22:47:23.620Z,11.69
2024-03-14T22:50:25.083Z,11.72
2024-03-14T22:53:26.644Z,11.75
2024-03-14T22:56:28.183Z,11.67
2024-03-14T22:59:29.718Z,11.71
2024-03-14T23:02:31.278Z,11.71
2024-03-14T23:05:32.814Z,11.77
2024-03-14T23:08:35.377Z,11.70
2024-03-14T23:11:36.950Z,11.72
2024-03-14T23:14:38.482Z,11.71
2024-03-14T23:17:40.114Z,11.73
2024-03-14T23:20:41.624Z,11.68
2024-03-14T23:23:43.158Z,11.78
2024-03-14T23:26:44.585Z,11.69
2024-03-14T23:29:46.132Z,11.68
2024-03-14T23:32:47.743Z,11.70
2024-03-14T23:35:49.330Z,11.63
2024-03-14T23:38:50.862Z,11.66
2024-03-14T23:41:52.326Z,11.71
2024-03-14T23:44:53.838Z,11.68
2024-03-14T23:47:55.463Z,11.69
2024-03-14T23:50:58.039Z,11.66
2024-03-14T23:53:59.498Z,11.61
2024-03-14T23:57:00.993Z,11.59
